Time;durP1;ratioP1;P1;durP2;ratioP2;P2;SDS_P1;SDS_P2;PMS_P1;PMS_P2;Temp;Humidity;BMP_temperature;BMP_pressure;BME280_temperature;BME280_humidity;BME280_pressure;Samples;Min_cycle;Max_cycle;Signal;HPM_P1;HPM_P2
2021/05/08 00:01:39;;;;;;;4.87;3.40;;;;;;;;;;5002341;28;20451;-83
2021/05/08 00:04:05;;;;;;;5.07;3.77;;;;;;;;;;5016170;28;20458;-83
2021/05/08 00:06:35;;;;;;;5.93;4.23;;;;;;;;;;5021570;28;20433;-83
2021/05/08 00:09:09;;;;;;;4.73;3.70;;;;;;;;;;5021003;28;20439;-83
2021/05/08 00:11:36;;;;;;;6.17;4.10;;;;;;;;;;5022036;28;20445;-83
2021/05/08 00:14:02;;;;;;;4.67;3.43;;;;;;;;;;5020679;28;20456;-83
2021/05/08 00:16:28;;;;;;;6.20;4.13;;;;;;;;;;5021809;28;20408;-83
2021/05/08 00:18:54;;;;;;;7.00;3.83;;;;;;;;;;5020999;28;20439;-83
2021/05/08 00:21:20;;;;;;;4.77;3.77;;;;;;;;;;5023935;28;20421;-83
2021/05/08 00:23:47;;;;;;;6.50;4.37;;;;;;;;;;5025111;28;20895;-83
2021/05/08 00:26:13;;;;;;;9.70;3.63;;;;;;;;;;5025413;28;20408;-83
2021/05/08 00:28:39;;;;;;;8.43;4.10;;;;;;;;;;5025062;28;20535;-84
2021/05/08 00:31:05;;;;;;;3.87;3.27;;;;;;;;;;5025420;28;20481;-84
2021/05/08 00:33:31;;;;;;;4.97;4.03;;;;;;;;;;5024322;28;20453;-84
2021/05/08 00:35:57;;;;;;;3.93;3.30;;;;;;;;;;5056041;28;20437;-85
2021/05/08 00:38:24;;;;;;;4.13;3.73;;;;;;;;;;5056557;28;20437;-84
2021/05/08 00:40:50;;;;;;;4.87;3.70;;;;;;;;;;5025958;28;20486;-84
2021/05/08 00:43:16;;;;;;;7.83;4.20;;;;;;;;;;5025334;28;20449;-84
2021/05/08 00:45:42;;;;;;;6.80;4.27;;;;;;;;;;5025987;28;20416;-84
2021/05/08 00:48:13;;;;;;;10.60;4.00;;;;;;;;;;5025543;28;20847;-84
2021/05/08 00:50:39;;;;;;;8.10;4.30;;;;;;;;;;5026111;28;20775;-82
2021/05/08 00:53:07;;;;;;;4.30;3.23;;;;;;;;;;5025586;28;20438;-82
2021/05/08 00:55:33;;;;;;;5.37;3.40;;;;;;;;;;5009443;28;20443;-83
2021/05/08 00:58:00;;;;;;;4.80;3.70;;;;;;;;;;5006122;28;20428;-82
2021/05/08 01:00:26;;;;;;;4.93;3.43;;;;;;;;;;5021998;28;21060;-82
2021/05/08 01:02:53;;;;;;;6.40;4.23;;;;;;;;;;5024962;28;20537;-83
2021/05/08 01:05:19;;;;;;;4.10;2.93;;;;;;;;;;5024742;28;20440;-82
2021/05/08 01:07:45;;;;;;;5.37;3.30;;;;;;;;;;5026373;28;20403;-85
2021/05/08 01:10:12;;;;;;;4.20;3.53;;;;;;;;;;5029270;28;20488;-81
2021/05/08 01:12:39;;;;;;;4.70;3.43;;;;;;;;;;5031181;28;20745;-82
2021/05/08 01:15:09;;;;;;;5.07;3.50;;;;;;;;;;5026515;28;20426;-82
2021/05/08 01:17:36;;;;;;;5.50;4.23;;;;;;;;;;5026267;28;20759;-82
2021/05/08 01:20:04;;;;;;;4.20;3.40;;;;;;;;;;5024788;28;20459;-83
2021/05/08 01:22:30;;;;;;;5.07;4.10;;;;;;;;;;5026613;28;20405;-83
2021/05/08 01:24:56;;;;;;;6.17;3.87;;;;;;;;;;5024778;28;20893;-83
2021/05/08 01:27:22;;;;;;;6.57;4.53;;;;;;;;;;5025559;28;20421;-82
2021/05/08 01:29:48;;;;;;;11.10;4.83;;;;;;;;;;5024845;28;20425;-83
2021/05/08 01:32:14;;;;;;;5.17;4.23;;;;;;;;;;5057104;28;20912;-83
2021/05/08 01:34:40;;;;;;;8.97;4.03;;;;;;;;;;5024628;28;20452;-83
2021/05/08 01:37:06;;;;;;;4.17;3.20;;;;;;;;;;5024764;28;20739;-83
2021/05/08 01:39:32;;;;;;;10.83;4.10;;;;;;;;;;5023759;28;20771;-83
2021/05/08 01:41:58;;;;;;;5.03;3.90;;;;;;;;;;5024924;28;20405;-83
2021/05/08 01:44:24;;;;;;;3.47;3.13;;;;;;;;;;5023308;28;20428;-84
2021/05/08 01:46:53;;;;;;;4.37;3.13;;;;;;;;;;5022810;28;20437;-83
2021/05/08 01:49:19;;;;;;;4.53;3.73;;;;;;;;;;5010478;28;20406;-83
2021/05/08 01:51:45;;;;;;;4.50;3.63;;;;;;;;;;5019939;28;20466;-83
2021/05/08 01:54:14;;;;;;;4.70;3.60;;;;;;;;;;5025236;28;20429;-83
2021/05/08 01:56:40;;;;;;;6.30;3.60;;;;;;;;;;5024848;28;20452;-82
2021/05/08 01:59:06;;;;;;;4.87;3.70;;;;;;;;;;5025868;28;20438;-83
2021/05/08 02:01:32;;;;;;;6.10;3.27;;;;;;;;;;5024462;28;20434;-83
2021/05/08 02:03:58;;;;;;;5.70;3.70;;;;;;;;;;5026150;28;20428;-82
2021/05/08 02:06:24;;;;;;;7.27;3.20;;;;;;;;;;5024436;28;20461;-83
2021/05/08 02:08:51;;;;;;;4.63;3.97;;;;;;;;;;5057586;28;20429;-83
2021/05/08 02:11:17;;;;;;;4.20;3.17;;;;;;;;;;5019528;28;20490;-83
2021/05/08 02:13:43;;;;;;;4.63;3.77;;;;;;;;;;5005440;28;20808;-83
2021/05/08 02:16:09;;;;;;;5.20;3.90;;;;;;;;;;5041813;28;20819;-83
2021/05/08 02:18:35;;;;;;;4.20;3.40;;;;;;;;;;5025931;28;20432;-83
2021/05/08 02:21:01;;;;;;;4.70;3.50;;;;;;;;;;5020396;28;20438;-83
2021/05/08 02:23:27;;;;;;;4.77;3.57;;;;;;;;;;5006277;28;20431;-83
2021/05/08 02:25:53;;;;;;;4.70;3.17;;;;;;;;;;5038525;28;20447;-83
2021/05/08 02:28:19;;;;;;;6.33;3.20;;;;;;;;;;5026108;28;20401;-83
2021/05/08 02:30:45;;;;;;;6.33;4.50;;;;;;;;;;5026012;28;20453;-85
2021/05/08 02:33:11;;;;;;;6.17;3.63;;;;;;;;;;5024403;28;20452;-84
2021/05/08 02:35:38;;;;;;;4.80;3.57;;;;;;;;;;5025818;28;20460;-84
2021/05/08 02:38:05;;;;;;;4.37;3.10;;;;;;;;;;5059626;28;20445;-83
2021/05/08 02:40:33;;;;;;;4.10;2.80;;;;;;;;;;5032945;28;20482;-83
2021/05/08 02:42:59;;;;;;;4.30;3.10;;;;;;;;;;5027887;28;20460;-83
2021/05/08 02:45:25;;;;;;;5.17;3.40;;;;;;;;;;5022829;28;20405;-84
2021/05/08 02:47:52;;;;;;;4.73;3.30;;;;;;;;;;5024517;28;20490;-83
2021/05/08 02:50:19;;;;;;;4.53;3.00;;;;;;;;;;5033870;28;20404;-82
2021/05/08 02:52:45;;;;;;;7.27;3.33;;;;;;;;;;5038242;28;20446;-83
2021/05/08 02:55:12;;;;;;;3.33;2.87;;;;;;;;;;5039622;28;20397;-83
2021/05/08 02:57:38;;;;;;;3.20;2.80;;;;;;;;;;5037974;28;20422;-84
2021/05/08 03:00:06;;;;;;;3.90;2.93;;;;;;;;;;5020591;28;20493;-84
2021/05/08 03:02:32;;;;;;;5.57;3.83;;;;;;;;;;5065292;28;20485;-83
2021/05/08 03:04:58;;;;;;;6.20;3.87;;;;;;;;;;5039567;28;20407;-84
2021/05/08 03:07:24;;;;;;;7.33;3.57;;;;;;;;;;5038755;28;20488;-85
2021/05/08 03:09:50;;;;;;;4.50;2.90;;;;;;;;;;5039521;28;20428;-84
2021/05/08 03:12:16;;;;;;;6.67;3.80;;;;;;;;;;5071370;28;20457;-85
2021/05/08 03:14:42;;;;;;;4.10;3.10;;;;;;;;;;5039483;28;20553;-84
2021/05/08 03:17:08;;;;;;;4.57;3.40;;;;;;;;;;5037591;28;20449;-83
2021/05/08 03:19:34;;;;;;;4.27;3.47;;;;;;;;;;5037947;28;20414;-85
2021/05/08 03:22:00;;;;;;;6.63;3.00;;;;;;;;;;5019582;28;20479;-84
2021/05/08 03:24:26;;;;;;;4.53;2.90;;;;;;;;;;5027529;28;20445;-84
2021/05/08 03:26:52;;;;;;;7.37;3.43;;;;;;;;;;5036965;28;20429;-84
2021/05/08 03:29:18;;;;;;;5.10;4.00;;;;;;;;;;5039240;28;20414;-85
2021/05/08 03:31:44;;;;;;;4.87;3.27;;;;;;;;;;5036283;28;20454;-84
2021/05/08 03:34:11;;;;;;;3.80;3.10;;;;;;;;;;5031856;28;20449;-85
2021/05/08 03:36:37;;;;;;;5.47;3.10;;;;;;;;;;5019518;28;20445;-84
2021/05/08 03:39:03;;;;;;;5.20;3.13;;;;;;;;;;5019300;28;20395;-84
2021/05/08 03:41:30;;;;;;;3.97;2.93;;;;;;;;;;5066242;28;20433;-85
2021/05/08 03:43:56;;;;;;;3.87;2.97;;;;;;;;;;5038900;28;20498;-84
2021/05/08 03:46:23;;;;;;;4.87;3.60;;;;;;;;;;5038156;28;20422;-84
2021/05/08 03:48:49;;;;;;;4.00;2.90;;;;;;;;;;5038899;28;20461;-83
2021/05/08 03:51:15;;;;;;;4.63;2.87;;;;;;;;;;5038282;28;20448;-84
2021/05/08 03:53:41;;;;;;;3.70;3.30;;;;;;;;;;5071096;28;20469;-84
2021/05/08 03:56:08;;;;;;;3.40;2.83;;;;;;;;;;5036783;28;20411;-83
2021/05/08 03:58:34;;;;;;;4.60;3.10;;;;;;;;;;5038834;28;20418;-85
2021/05/08 04:01:00;;;;;;;3.97;3.27;;;;;;;;;;5037801;28;20433;-84
2021/05/08 04:03:27;;;;;;;3.80;2.77;;;;;;;;;;5038657;28;20418;-85
2021/05/08 04:05:53;;;;;;;5.50;3.20;;;;;;;;;;5036394;28;20423;-84
2021/05/08 04:08:19;;;;;;;4.00;3.60;;;;;;;;;;5064450;28;20414;-85
2021/05/08 04:10:46;;;;;;;7.00;4.20;;;;;;;;;;5037874;28;20457;-84
2021/05/08 04:13:13;;;;;;;9.53;3.43;;;;;;;;;;5037841;28;20432;-84
2021/05/08 04:15:39;;;;;;;8.17;3.80;;;;;;;;;;5038137;28;20434;-85
2021/05/08 04:18:05;;;;;;;5.17;3.70;;;;;;;;;;5038633;28;20386;-84
2021/05/08 04:20:31;;;;;;;4.30;3.60;;;;;;;;;;5037886;28;20418;-85
2021/05/08 04:25:28;;;;;;;3.63;3.30;;;;;;;;;;5042521;22;20491;-65
2021/05/08 04:27:54;;;;;;;4.80;3.20;;;;;;;;;;5033541;28;20416;-65
2021/05/08 04:30:21;;;;;;;5.80;3.67;;;;;;;;;;5032257;28;20447;-65
2021/05/08 04:32:47;;;;;;;3.90;3.50;;;;;;;;;;5034153;28;20448;-65
2021/05/08 04:35:13;;;;;;;4.53;3.50;;;;;;;;;;5032969;28;20575;-65
2021/05/08 04:37:39;;;;;;;6.77;3.70;;;;;;;;;;5034264;28;20479;-65
2021/05/08 04:40:06;;;;;;;4.40;3.13;;;;;;;;;;5031125;28;20425;-65
2021/05/08 04:42:32;;;;;;;5.23;3.80;;;;;;;;;;5029230;28;20427;-65
2021/05/08 04:44:58;;;;;;;6.90;3.17;;;;;;;;;;5032099;28;20406;-66
2021/05/08 04:47:25;;;;;;;6.53;4.00;;;;;;;;;;5032232;28;20896;-66
2021/05/08 04:49:54;;;;;;;4.03;3.00;;;;;;;;;;5032870;28;20406;-66
2021/05/08 04:52:20;;;;;;;4.07;3.20;;;;;;;;;;5031499;28;20462;-66
2021/05/08 04:54:46;;;;;;;5.63;3.40;;;;;;;;;;5032544;28;20403;-66
2021/05/08 04:57:13;;;;;;;4.10;3.47;;;;;;;;;;5031525;28;20436;-65
2021/05/08 04:59:39;;;;;;;5.80;3.77;;;;;;;;;;5032521;28;20401;-66
2021/05/08 05:02:05;;;;;;;5.23;3.40;;;;;;;;;;5031447;28;21007;-66
2021/05/08 05:04:31;;;;;;;5.37;3.33;;;;;;;;;;5030605;28;20781;-66
2021/05/08 05:06:57;;;;;;;3.70;3.30;;;;;;;;;;5018584;28;20842;-66
2021/05/08 05:09:27;;;;;;;6.40;4.00;;;;;;;;;;5016737;28;20408;-66
2021/05/08 05:11:53;;;;;;;3.73;2.80;;;;;;;;;;5030596;28;20491;-66
2021/05/08 05:14:19;;;;;;;7.07;3.93;;;;;;;;;;5036308;28;20920;-66
2021/05/08 05:16:45;;;;;;;4.63;3.77;;;;;;;;;;5035344;28;20441;-66
2021/05/08 05:19:11;;;;;;;4.37;3.23;;;;;;;;;;5036277;28;20460;-66
2021/05/08 05:21:37;;;;;;;4.83;3.40;;;;;;;;;;5034891;28;20951;-66
2021/05/08 05:24:04;;;;;;;3.87;3.00;;;;;;;;;;5036005;28;20530;-66
2021/05/08 05:26:30;;;;;;;4.10;3.53;;;;;;;;;;5035338;28;20483;-66
2021/05/08 05:28:56;;;;;;;4.53;3.17;;;;;;;;;;5034957;28;20480;-66
2021/05/08 05:31:22;;;;;;;4.60;3.27;;;;;;;;;;5035105;28;20465;-66
2021/05/08 05:33:48;;;;;;;4.47;2.87;;;;;;;;;;5036232;28;20769;-66
2021/05/08 05:36:15;;;;;;;3.70;2.87;;;;;;;;;;5035399;28;20475;-66
2021/05/08 05:38:42;;;;;;;6.13;3.80;;;;;;;;;;5034936;28;20435;-66
2021/05/08 05:41:08;;;;;;;4.90;3.37;;;;;;;;;;5035023;28;20506;-66
2021/05/08 05:43:34;;;;;;;3.43;3.00;;;;;;;;;;5036068;28;20411;-66
2021/05/08 05:46:00;;;;;;;5.37;3.13;;;;;;;;;;5035149;28;20471;-66
2021/05/08 05:48:26;;;;;;;5.33;2.90;;;;;;;;;;5036172;28;20825;-66
2021/05/08 05:50:53;;;;;;;5.47;3.10;;;;;;;;;;5034670;28;20976;-66
2021/05/08 05:53:19;;;;;;;4.60;2.60;;;;;;;;;;5035905;28;20409;-66
2021/05/08 05:55:45;;;;;;;4.07;2.70;;;;;;;;;;5033227;28;20433;-61
2021/05/08 05:58:11;;;;;;;4.17;2.90;;;;;;;;;;5033117;28;20421;-61
2021/05/08 06:00:37;;;;;;;3.87;2.53;;;;;;;;;;5034328;28;20427;-66
2021/05/08 06:03:04;;;;;;;4.07;2.80;;;;;;;;;;5033552;28;20425;-64
2021/05/08 06:05:30;;;;;;;4.10;2.60;;;;;;;;;;5033102;28;20549;-65
2021/05/08 06:07:56;;;;;;;5.93;2.60;;;;;;;;;;5031827;28;20433;-65
2021/05/08 06:10:22;;;;;;;4.00;2.53;;;;;;;;;;5032566;28;20440;-66
2021/05/08 06:12:48;;;;;;;4.23;3.20;;;;;;;;;;5034100;28;20429;-65
2021/05/08 06:15:14;;;;;;;3.50;2.57;;;;;;;;;;5034460;28;20424;-65
2021/05/08 06:17:40;;;;;;;3.20;2.40;;;;;;;;;;5033333;28;20437;-64
2021/05/08 06:20:07;;;;;;;3.80;2.43;;;;;;;;;;5035287;28;20470;-65
2021/05/08 06:22:33;;;;;;;3.50;2.90;;;;;;;;;;5033100;28;20524;-64
2021/05/08 06:24:59;;;;;;;4.63;3.10;;;;;;;;;;5033527;28;20533;-64
2021/05/08 06:27:26;;;;;;;5.17;3.40;;;;;;;;;;5033167;28;20438;-64
2021/05/08 06:29:52;;;;;;;5.20;4.00;;;;;;;;;;5034220;28;20509;-64
2021/05/08 06:32:18;;;;;;;9.73;3.20;;;;;;;;;;5032819;28;20466;-64
2021/05/08 06:34:44;;;;;;;3.90;2.93;;;;;;;;;;5033851;28;20462;-66
2021/05/08 06:37:10;;;;;;;4.17;3.30;;;;;;;;;;5032671;28;20496;-66
2021/05/08 06:39:36;;;;;;;7.87;3.63;;;;;;;;;;5032827;28;20457;-66
2021/05/08 06:42:02;;;;;;;6.10;3.37;;;;;;;;;;5033493;28;20516;-67
2021/05/08 06:44:28;;;;;;;4.00;3.17;;;;;;;;;;5032953;28;20432;-67
2021/05/08 06:46:57;;;;;;;4.17;2.73;;;;;;;;;;5031570;28;20930;-68
2021/05/08 06:49:24;;;;;;;3.67;2.83;;;;;;;;;;5034691;28;20818;-68
2021/05/08 06:51:50;;;;;;;2.63;2.40;;;;;;;;;;5033555;28;20466;-68
2021/05/08 06:54:16;;;;;;;3.63;2.80;;;;;;;;;;5034362;28;20475;-68
2021/05/08 06:56:42;;;;;;;3.97;2.87;;;;;;;;;;5030307;28;20429;-68
2021/05/08 06:59:08;;;;;;;3.07;2.40;;;;;;;;;;5028770;28;20465;-68
2021/05/08 07:01:34;;;;;;;3.60;2.47;;;;;;;;;;5033876;28;20839;-67
2021/05/08 07:04:01;;;;;;;3.67;2.70;;;;;;;;;;5034382;28;20765;-67
2021/05/08 07:06:27;;;;;;;6.40;2.80;;;;;;;;;;5032824;28;20905;-68
2021/05/08 07:08:53;;;;;;;4.47;2.53;;;;;;;;;;5033909;28;20830;-68
2021/05/08 07:11:20;;;;;;;4.80;2.37;;;;;;;;;;5033555;28;20814;-68
2021/05/08 07:13:46;;;;;;;4.63;2.33;;;;;;;;;;5033795;28;20500;-68
2021/05/08 07:16:12;;;;;;;4.30;2.60;;;;;;;;;;5034123;28;20406;-68
2021/05/08 07:18:38;;;;;;;3.70;2.53;;;;;;;;;;5032820;28;20425;-68
2021/05/08 07:21:04;;;;;;;4.67;2.80;;;;;;;;;;5034261;28;20911;-68
2021/05/08 07:23:30;;;;;;;4.70;2.60;;;;;;;;;;5032779;28;20480;-68
2021/05/08 07:25:56;;;;;;;4.30;2.33;;;;;;;;;;5034439;28;20384;-66
2021/05/08 07:28:24;;;;;;;3.30;2.33;;;;;;;;;;5032590;28;20978;-68
2021/05/08 07:30:51;;;;;;;5.10;2.97;;;;;;;;;;5033576;28;20538;-67
2021/05/08 07:33:17;;;;;;;2.93;2.13;;;;;;;;;;5031458;28;20426;-68
2021/05/08 07:35:44;;;;;;;3.50;2.53;;;;;;;;;;5033953;28;20903;-67
2021/05/08 07:38:11;;;;;;;3.47;2.70;;;;;;;;;;5032857;28;20770;-66
2021/05/08 07:40:39;;;;;;;3.10;2.47;;;;;;;;;;5035863;28;20429;-68
2021/05/08 07:43:06;;;;;;;3.20;2.70;;;4.50;99.90;;;;;;5037011;28;20498;-67
2021/05/08 07:45:32;;;;;;;3.57;2.10;;;10.40;99.90;;;;;;5037743;28;20406;-67
2021/05/08 07:47:57;;;;;;;4.07;2.77;;;10.50;99.90;;;;;;5033057;28;20434;-68
2021/05/08 07:50:24;;;;;;;4.13;2.73;;;10.50;99.90;;;;;;5033747;28;20426;-68
2021/05/08 07:52:50;;;;;;;3.40;2.07;;;10.60;99.90;;;;;;5032057;28;20450;-68
2021/05/08 07:55:16;;;;;;;3.70;2.97;;;10.70;99.90;;;;;;5033261;28;20428;-68
2021/05/08 07:57:42;;;;;;;5.00;2.60;;;10.80;99.90;;;;;;5032003;28;20226;-67
2021/05/08 08:00:10;;;;;;;3.63;2.40;;;10.90;99.90;;;;;;5033502;28;20431;-68
2021/05/08 08:02:37;;;;;;;4.30;2.37;;;11.00;99.90;;;;;;5032045;28;20438;-68
2021/05/08 08:05:04;;;;;;;3.00;2.23;;;11.10;99.90;;;;;;5033060;28;20763;-68
2021/05/08 08:07:30;;;;;;;3.00;1.87;;;11.10;99.90;;;;;;5030347;28;20441;-68
2021/05/08 08:09:56;;;;;;;3.90;1.87;;;11.20;99.90;;;;;;5032824;28;20399;-68
2021/05/08 08:12:22;;;;;;;3.17;2.37;;;11.20;99.90;;;;;;5031975;28;20268;-68
2021/05/08 08:14:48;;;;;;;4.13;2.50;;;11.30;99.90;;;;;;5031892;28;20199;-68
2021/05/08 08:17:13;;;;;;;4.07;2.53;;;11.40;99.90;;;;;;5031751;28;20183;-68
2021/05/08 08:19:39;;;;;;;4.30;2.17;;;11.50;99.90;;;;;;5032870;28;20759;-68
2021/05/08 08:22:05;;;;;;;4.10;2.13;;;11.70;99.90;;;;;;5031132;28;20182;-68
2021/05/08 08:24:31;;;;;;;3.47;2.27;;;11.70;99.90;;;;;;5032620;28;20199;-68
2021/05/08 08:26:58;;;;;;;5.00;2.20;;;11.80;99.90;;;;;;5031657;28;20179;-68
2021/05/08 08:29:26;;;;;;;2.83;1.73;;;11.80;99.90;;;;;;5032943;28;20729;-68
2021/05/08 08:31:51;;;;;;;4.43;2.30;;;11.90;99.90;;;;;;5031729;28;20457;-68
2021/05/08 08:34:17;;;;;;;2.50;1.83;;;12.00;99.90;;;;;;5032595;28;20921;-68
2021/05/08 08:36:43;;;;;;;2.10;1.67;;;12.00;99.90;;;;;;5032702;28;20175;-68
2021/05/08 08:39:09;;;;;;;2.83;2.10;;;11.90;99.90;;;;;;5031638;28;20441;-68
2021/05/08 08:41:35;;;;;;;3.03;1.73;;;12.10;99.90;;;;;;5032023;28;20672;-68
2021/05/08 08:44:02;;;;;;;2.57;1.60;;;12.20;99.90;;;;;;5034358;28;20184;-68
2021/05/08 08:46:27;;;;;;;3.10;1.97;;;12.20;99.90;;;;;;5034489;28;20433;-68
2021/05/08 08:48:53;;;;;;;6.13;2.40;;;12.20;99.90;;;;;;5034084;28;20434;-68
2021/05/08 08:51:19;;;;;;;3.33;1.97;;;12.10;99.90;;;;;;5035735;28;20196;-68
2021/05/08 08:53:48;;;;;;;4.13;2.20;;;12.10;99.90;;;;;;5032078;28;20249;-66
2021/05/08 08:56:15;;;;;;;2.60;1.73;;;12.20;99.90;;;;;;5033682;28;20180;-65
2021/05/08 08:58:44;;;;;;;5.70;1.70;;;12.40;99.90;;;;;;5034852;28;20430;-66
2021/05/08 09:01:10;;;;;;;5.23;1.80;;;12.40;99.90;;;;;;5033473;28;20460;-68
2021/05/08 09:03:35;;;;;;;4.20;1.90;;;12.50;99.90;;;;;;5033516;28;20509;-63
2021/05/08 09:06:02;;;;;;;3.83;2.40;;;12.70;99.90;;;;;;5035416;28;20418;-63
2021/05/08 09:08:31;;;;;;;2.90;1.67;;;12.70;99.90;;;;;;5035364;28;20275;-66
2021/05/08 09:11:21;;;;;;;3.00;1.40;;;12.60;99.90;;;;;;5028851;28;20428;-64
2021/05/08 09:13:47;;;;;;;2.73;1.80;;;12.70;99.90;;;;;;5026313;28;20175;-65
2021/05/08 09:16:13;;;;;;;2.95;1.63;;;12.80;99.90;;;;;;5033579;28;20448;-66
2021/05/08 09:18:40;;;;;;;3.30;1.80;;;12.80;99.90;;;;;;5034607;28;20655;-68
2021/05/08 09:21:26;;;;;;;3.30;1.80;;;12.80;99.90;;;;;;5035574;28;20521;-67
2021/05/08 09:23:58;;;;;;;4.45;1.60;;;12.80;99.80;;;;;;5033398;28;20498;-68
2021/05/08 09:26:23;;;;;;;2.60;1.70;;;12.90;99.90;;;;;;5026091;28;20183;-66
2021/05/08 09:28:53;;;;;;;3.13;1.70;;;13.10;99.70;;;;;;5026654;28;20447;-66
2021/05/08 09:31:19;;;;;;;3.20;1.80;;;13.20;99.90;;;;;;5032433;28;20293;-67
2021/05/08 09:33:53;;;;;;;4.57;1.50;;;13.20;99.00;;;;;;5034889;28;20470;-66
2021/05/08 09:36:19;;;;;;;2.63;1.77;;;13.20;98.90;;;;;;5036108;28;20759;-67
2021/05/08 09:38:46;;;;;;;2.70;1.63;;;13.30;99.30;;;;;;5033751;28;20432;-67
2021/05/08 09:41:14;;;;;;;2.77;1.70;;;13.40;99.50;;;;;;5035557;28;20253;-67
2021/05/08 09:43:40;;;;;;;6.17;1.93;;;13.60;99.80;;;;;;5034644;28;20768;-65
2021/05/08 09:46:08;;;;;;;3.03;1.90;;;13.70;99.40;;;;;;5035712;28;20418;-65
2021/05/08 09:48:34;;;;;;;3.53;1.93;;;13.70;98.80;;;;;;5034490;28;20436;-65
2021/05/08 09:51:15;;;;;;;2.10;1.67;;;13.70;98.70;;;;;;5035053;28;20447;-65
2021/05/08 09:53:41;;;;;;;2.00;1.33;;;13.80;98.00;;;;;;5032959;28;20848;-65
2021/05/08 09:56:31;;;;;;;2.60;1.60;;;13.90;98.30;;;;;;5035445;28;20406;-65
2021/05/08 09:59:21;;;;;;;2.20;1.00;;;14.20;97.70;;;;;;5024684;28;20176;-65
2021/05/08 10:01:47;;;;;;;4.27;1.83;;;14.30;97.30;;;;;;5035726;28;20830;-65
2021/05/08 10:04:31;;;;;;;2.53;1.20;;;14.50;96.90;;;;;;5034067;28;20430;-66
2021/05/08 10:07:10;;;;;;;3.63;1.80;;;14.50;96.90;;;;;;5035275;28;20645;-67
2021/05/08 10:09:37;;;;;;;2.93;1.70;;;14.60;97.40;;;;;;5034111;28;20945;-67
2021/05/08 10:12:08;;;;;;;2.13;1.80;;;14.70;96.90;;;;;;5035018;28;20445;-67
2021/05/08 10:14:38;;;;;;;2.87;1.60;;;14.80;96.60;;;;;;5034256;28;20430;-65
2021/05/08 10:17:04;;;;;;;2.37;1.40;;;14.70;96.00;;;;;;5035531;28;20407;-65
2021/05/08 10:19:32;;;;;;;3.40;1.80;;;14.50;96.10;;;;;;5032593;28;20425;-67
2021/05/08 10:21:58;;;;;;;3.23;1.37;;;14.10;96.10;;;;;;5034742;28;20520;-67
2021/05/08 10:24:28;;;;;;;4.30;2.00;;;14.00;96.90;;;;;;5033657;28;20510;-67
2021/05/08 10:26:58;;;;;;;2.67;1.50;;;14.00;96.00;;;;;;5032745;28;20435;-67
2021/05/08 10:29:30;;;;;;;4.47;1.73;;;14.00;95.90;;;;;;5033981;28;20453;-67
2021/05/08 10:31:58;;;;;;;6.00;2.10;;;14.00;96.20;;;;;;5033092;28;20523;-66
2021/05/08 10:34:53;;;;;;;2.23;1.60;;;14.10;96.50;;;;;;5033206;28;20427;-66
2021/05/08 10:37:20;;;;;;;2.60;1.70;;;14.30;96.60;;;;;;5020579;28;20952;-66
2021/05/08 10:39:58;;;;;;;2.53;1.60;;;14.70;95.50;;;;;;5034340;28;20439;-66
2021/05/08 10:42:35;;;;;;;3.10;1.53;;;14.90;95.10;;;;;;5033277;28;20434;-66
2021/05/08 10:45:06;;;;;;;1.93;1.27;;;15.20;95.00;;;;;;5033244;28;20516;-66
2021/05/08 10:50:27;;;;;;;2.37;1.30;;;15.50;93.80;;;;;;5031013;28;20446;-66
2021/05/08 10:52:58;;;;;;;2.77;1.30;;;15.50;93.90;;;;;;5033432;28;20453;-65
2021/05/08 10:55:25;;;;;;;2.90;1.10;;;15.70;93.10;;;;;;5034354;28;20912;-64
2021/05/08 10:58:24;;;;;;;2.50;1.17;;;15.70;92.10;;;;;;5032967;28;21022;-64
2021/05/08 11:00:51;;;;;;;5.50;1.20;;;15.70;92.10;;;;;;5033881;28;20429;-66
2021/05/08 11:03:22;;;;;;;3.60;2.40;;;15.80;91.90;;;;;;5027985;28;20433;-65
2021/05/08 11:05:54;;;;;;;2.00;1.17;;;15.70;90.60;;;;;;5025950;28;20457;-66
2021/05/08 11:08:26;;;;;;;2.17;1.10;;;15.60;90.50;;;;;;5026078;28;20430;-66
2021/05/08 11:10:55;;;;;;;1.70;0.80;;;15.60;91.30;;;;;;5022343;28;20454;-66
2021/05/08 11:13:22;;;;;;;2.00;1.27;;;15.50;90.40;;;;;;5032200;28;21052;-65
2021/05/08 11:15:56;;;;;;;2.17;1.17;;;15.60;90.00;;;;;;5033473;28;20418;-64
2021/05/08 11:18:51;;;;;;;2.10;1.10;;;15.50;90.30;;;;;;5032043;28;20475;-64
2021/05/08 11:21:21;;;;;;;1.67;1.00;;;15.50;90.20;;;;;;5032995;28;20210;-62
2021/05/08 11:24:01;;;;;;;1.77;1.20;;;15.50;90.90;;;;;;5032537;28;20439;-63
2021/05/08 11:26:30;;;;;;;1.90;1.37;;;15.60;91.40;;;;;;5031967;28;20772;-64
2021/05/08 11:28:59;;;;;;;2.37;0.97;;;15.80;92.30;;;;;;5013555;28;20419;-65
2021/05/08 11:31:26;;;;;;;2.63;1.40;;;15.80;91.10;;;;;;5031484;28;20593;-64
2021/05/08 11:33:52;;;;;;;1.90;1.00;;;15.80;91.30;;;;;;5032771;28;20833;-63
2021/05/08 11:36:18;;;;;;;2.80;1.20;;;15.70;91.10;;;;;;5030826;28;20436;-65
2021/05/08 11:38:44;;;;;;;2.00;1.13;;;16.00;91.20;;;;;;5031968;28;20179;-66
2021/05/08 11:41:21;;;;;;;1.80;1.07;;;16.10;89.10;;;;;;5032344;28;21013;-66
2021/05/08 11:43:57;;;;;;;2.67;1.43;;;16.10;90.40;;;;;;5032053;28;20493;-66
2021/05/08 11:46:31;;;;;;;1.90;1.50;;;16.00;89.60;;;;;;5030914;28;20423;-65
2021/05/08 11:48:57;;;;;;;2.63;1.20;;;15.80;88.10;;;;;;5031664;28;20453;-65
2021/05/08 11:51:24;;;;;;;2.00;1.30;;;15.70;90.30;;;;;;5032448;28;20954;-66
2021/05/08 11:54:06;;;;;;;2.00;1.00;;;15.90;90.30;;;;;;5031883;28;20435;-65
2021/05/08 11:56:32;;;;;;;2.73;1.63;;;15.80;90.20;;;;;;5032588;28;20475;-67
2021/05/08 11:59:00;;;;;;;1.80;1.07;;;15.80;88.20;;;;;;5031957;28;20791;-67
2021/05/08 12:01:26;;;;;;;1.90;1.10;;;15.70;89.50;;;;;;5032876;28;20441;-65
2021/05/08 12:03:55;;;;;;;2.50;1.13;;;15.70;91.00;;;;;;5031435;28;20506;-65
2021/05/08 12:06:21;;;;;;;2.53;1.30;;;15.60;89.70;;;;;;5033318;28;20655;-65
2021/05/08 12:08:47;;;;;;;1.90;1.00;;;15.60;91.30;;;;;;5031626;28;20419;-65
2021/05/08 12:11:17;;;;;;;2.40;1.50;;;15.60;90.30;;;;;;5032167;28;20199;-67
2021/05/08 12:13:43;;;;;;;1.80;1.10;;;15.60;88.30;;;;;;5031823;28;20278;-67
2021/05/08 12:16:10;;;;;;;2.47;1.30;;;15.50;89.80;;;;;;5032479;28;20549;-64
2021/05/08 12:18:36;;;;;;;2.80;1.23;;;;;;;;;;5030515;28;20187;-66
2021/05/08 12:21:03;;;;;;;1.60;1.00;;;;;;;;;;5025603;28;20581;-67
2021/05/08 12:23:29;;;;;;;3.07;1.23;;;;;;;;;;5029170;28;20434;-66
2021/05/08 12:26:14;;;;;;;2.30;1.00;;;;;;;;;;5032737;28;20406;-66
2021/05/08 12:28:42;;;;;;;2.03;1.10;;;;;;;;;;5016835;28;20951;-66
2021/05/08 12:31:21;;;;;;;1.90;1.20;;;;;;;;;;5012855;28;20456;-66
2021/05/08 12:33:47;;;;;;;1.73;0.93;;;;;;;;;;5028746;28;20523;-67
2021/05/08 12:36:14;;;;;;;1.77;1.00;;;;;;;;;;5032840;28;20403;-66
2021/05/08 12:38:40;;;;;;;3.40;1.13;;;;;;;;;;5031580;28;20437;-66
2021/05/08 12:41:26;;;;;;;1.70;1.00;;;;;;;;;;5032710;28;20505;-66
2021/05/08 12:43:52;;;;;;;2.37;1.10;;;;;;;;;;5031538;28;20985;-66
2021/05/08 12:46:18;;;;;;;1.80;1.17;;;;;;;;;;5032537;28;20891;-66
2021/05/08 12:48:44;;;;;;;3.97;1.00;;;;;;;;;;5032025;28;20883;-66
2021/05/08 12:51:42;;;;;;;1.70;0.90;;;;;;;;;;5029494;28;20882;-66
2021/05/08 12:54:29;;;;;;;2.13;1.10;;;;;;;;;;5009999;28;20913;-66
2021/05/08 12:56:57;;;;;;;1.60;0.80;;;;;;;;;;5031739;28;20419;-67
2021/05/08 12:59:30;;;;;;;3.47;1.00;;;;;;;;;;5012850;28;20396;-66
2021/05/08 13:02:15;;;;;;;1.60;1.00;;;;;;;;;;5012691;28;20517;-66
2021/05/08 13:04:42;;;;;;;1.40;0.70;;;;;;;;;;5012641;28;20896;-67
2021/05/08 13:07:26;;;;;;;1.80;1.00;;;;;;;;;;5013810;28;20415;-66
2021/05/08 13:10:13;;;;;;;2.40;0.93;;;;;;;;;;5031092;28;20449;-66
2021/05/08 13:12:39;;;;;;;1.80;1.10;;;;;;;;;;5021323;28;20556;-66
2021/05/08 13:15:09;;;;;;;2.90;1.10;;;;;;;;;;5034208;28;20435;-66
2021/05/08 13:17:36;;;;;;;2.23;1.10;;;;;;;;;;5037996;28;20438;-67
2021/05/08 13:20:02;;;;;;;3.73;1.10;;;;;;;;;;5038202;28;20518;-66
2021/05/08 13:22:28;;;;;;;4.80;1.20;;;;;;;;;;5031315;28;20511;-66
2021/05/08 13:24:54;;;;;;;2.07;0.80;;;;;;;;;;5012444;28;20450;-66
2021/05/08 13:27:20;;;;;;;2.17;1.00;;;;;;;;;;5015209;28;20462;-66
2021/05/08 13:29:46;;;;;;;1.90;0.87;;;;;;;;;;5035565;28;20414;-66
2021/05/08 13:32:12;;;;;;;1.77;1.07;;;;;;;;;;5034612;28;20453;-66
2021/05/08 13:34:38;;;;;;;1.50;0.90;;;;;;;;;;5036108;28;20494;-67
2021/05/08 13:37:04;;;;;;;2.63;0.90;;;;;;;;;;5034703;28;20403;-66
2021/05/08 13:39:30;;;;;;;2.70;0.97;;;;;;;;;;5035792;28;20903;-66
2021/05/08 13:41:56;;;;;;;6.10;0.90;;;;;;;;;;5035607;28;20431;-67
2021/05/08 13:44:22;;;;;;;2.07;1.30;;;;;;;;;;5034499;28;20426;-67
2021/05/08 13:46:49;;;;;;;1.90;1.00;;;;;;;;;;5035779;28;20534;-66
2021/05/08 13:49:15;;;;;;;1.87;1.17;;;;;;;;;;5034773;28;20832;-67
2021/05/08 13:51:41;;;;;;;2.30;0.97;;;;;;;;;;5034074;28;20958;-67
2021/05/08 13:54:07;;;;;;;3.50;0.87;;;;;;;;;;5034352;28;20423;-66
2021/05/08 13:56:33;;;;;;;2.40;1.03;;;;;;;;;;5035505;28;20406;-66
2021/05/08 13:58:59;;;;;;;1.70;0.90;;;;;;;;;;5032239;28;20427;-66
2021/05/08 14:01:25;;;;;;;6.10;1.13;;;;;;;;;;5035110;28;20450;-66
2021/05/08 14:03:52;;;;;;;1.80;0.90;;;;;;;;;;5021039;28;20545;-66
2021/05/08 14:06:18;;;;;;;1.53;0.73;;;;;;;;;;5015395;28;20408;-66
2021/05/08 14:08:44;;;;;;;2.40;1.20;;;;;;;;;;5027355;28;20439;-66
2021/05/08 14:11:10;;;;;;;1.80;0.80;;;;;;;;;;5034765;28;20454;-66